createdAt,value
2024-02-29T00:00:53.399Z,39.10
2024-02-29T00:03:26.085Z,35.78
2024-02-29T00:05:56.593Z,30.65
2024-02-29T00:08:28.299Z,37.53
2024-02-29T00:10:58.350Z,37.00
2024-02-29T00:13:28.368Z,34.10
2024-02-29T00:15:59.150Z,39.53
2024-02-29T00:18:32.115Z,33.58
2024-02-29T00:21:02.394Z,32.75
2024-02-29T00:23:32.705Z,26.42
2024-02-29T00:26:02.742Z,25.10
2024-02-29T00:28:34.160Z,26.83
2024-02-29T00:31:04.350Z,28.70
2024-02-29T00:33:37.060Z,28.50
2024-02-29T00:36:10.048Z,32.63
2024-02-29T00:38:40.612Z,32.45
2024-02-29T00:41:11.262Z,30.80
2024-02-29T00:43:41.502Z,32.28
2024-02-29T00:46:11.733Z,27.52
2024-02-29T00:48:44.479Z,30.73
2024-02-29T00:51:14.399Z,32.85
2024-02-29T00:53:44.273Z,30.58
2024-02-29T00:56:14.631Z,31.10
2024-02-29T00:58:44.592Z,29.50
2024-02-29T01:01:14.708Z,34.55
2024-02-29T01:03:47.477Z,27.65
2024-02-29T01:06:17.634Z,36.58
2024-02-29T01:08:51.428Z,30.88
2024-02-29T01:11:21.972Z,33.70
2024-02-29T01:13:52.238Z,32.83
2024-02-29T01:16:22.404Z,30.35
2024-02-29T01:18:54.925Z,34.35
2024-02-29T01:21:24.961Z,32.60
2024-02-29T01:23:54.947Z,30.83
2024-02-29T01:26:24.816Z,28.65
2024-02-29T01:28:55.217Z,27.65
2024-02-29T01:31:25.102Z,32.38
2024-02-29T01:33:57.842Z,26.98
2024-02-29T01:36:27.938Z,32.40
2024-02-29T01:38:58.022Z,28.58
2024-02-29T01:41:27.960Z,35.85
2024-02-29T01:43:58.595Z,28.15
2024-02-29T01:46:28.633Z,30.92
2024-02-29T01:49:02.882Z,29.65
2024-02-29T01:51:33.701Z,30.58
2024-02-29T01:54:04.058Z,36.83
2024-02-29T01:56:34.598Z,26.65
2024-02-29T01:59:06.023Z,31.67
2024-02-29T02:01:37.221Z,29.08
2024-02-29T02:04:10.014Z,29.90
2024-02-29T02:06:40.758Z,29.58
2024-02-29T02:09:11.599Z,35.08
2024-02-29T02:11:41.434Z,33.90
2024-02-29T02:14:11.229Z,32.05
2024-02-29T02:16:41.210Z,38.47
2024-02-29T02:19:16.507Z,35.08
2024-02-29T02:21:49.189Z,37.72
2024-02-29T02:24:19.273Z,35.97
2024-02-29T02:26:50.184Z,39.33
2024-02-29T02:29:20.243Z,40.47
2024-02-29T02:31:50.349Z,38.47
2024-02-29T02:34:20.319Z,28.23
2024-02-29T02:36:54.341Z,33.63
2024-02-29T02:39:24.397Z,38.72
2024-02-29T02:41:54.326Z,39.80
2024-02-29T02:44:24.390Z,40.72
2024-02-29T02:46:54.369Z,44.88
2024-02-29T02:49:24.539Z,36.28
2024-02-29T02:51:57.125Z,35.10
2024-02-29T02:54:27.066Z,36.15
2024-02-29T02:56:57.114Z,37.83
2024-02-29T02:59:27.114Z,43.30
2024-02-29T03:01:57.174Z,49.15
2024-02-29T03:04:27.571Z,46.90
2024-02-29T03:07:00.374Z,46.63
2024-02-29T03:09:31.577Z,52.55
2024-02-29T03:12:01.859Z,47.03
2024-02-29T03:14:32.096Z,45.53
2024-02-29T03:17:02.251Z,70.22
2024-02-29T03:19:32.211Z,48.38
2024-02-29T03:22:05.319Z,42.53
2024-02-29T03:24:35.523Z,56.80
2024-02-29T03:27:05.551Z,78.45
2024-02-29T03:29:35.644Z,72.38
2024-02-29T03:32:05.859Z,57.67
2024-02-29T03:34:35.982Z,75.15
2024-02-29T03:37:09.459Z,60.67
2024-02-29T03:39:39.618Z,53.03
2024-02-29T03:42:09.682Z,65.82
2024-02-29T03:44:42.731Z,119.68
2024-02-29T03:47:12.879Z,72.63
2024-02-29T03:49:43.135Z,68.88
2024-02-29T03:52:16.105Z,66.47
2024-02-29T03:54:46.579Z,87.20
2024-02-29T03:57:16.641Z,65.93
2024-02-29T03:59:48.572Z,61.45
2024-02-29T04:02:18.999Z,76.82
2024-02-29T04:04:49.229Z,84.90
2024-02-29T04:07:22.393Z,79.50
2024-02-29T04:09:56.102Z,107.53
2024-02-29T04:12:26.605Z,90.55
2024-02-29T04:14:56.571Z,96.07
2024-02-29T04:17:26.687Z,107.18
2024-02-29T04:19:56.877Z,62.03
2024-02-29T04:22:31.105Z,74.55
2024-02-29T04:25:01.258Z,99.53
2024-02-29T04:27:31.303Z,87.70
2024-02-29T04:30:01.484Z,142.32
2024-02-29T04:32:31.598Z,115.95
2024-02-29T04:35:03.763Z,86.25
2024-02-29T04:37:36.385Z,75.50
2024-02-29T04:40:11.065Z,96.82
2024-02-29T04:42:41.620Z,117.03
2024-02-29T04:45:12.685Z,119.28
2024-02-29T04:47:43.796Z,105.35
2024-02-29T04:50:13.916Z,113.00
2024-02-29T04:52:46.540Z,66.85
2024-02-29T04:55:16.736Z,129.90
2024-02-29T04:57:47.008Z,211.30
2024-02-29T05:00:18.146Z,124.13
2024-02-29T05:02:48.156Z,76.35
2024-02-29T05:05:18.413Z,111.30
2024-02-29T05:07:50.924Z,85.45
2024-02-29T05:10:20.916Z,64.47
2024-02-29T05:12:51.952Z,68.47
2024-02-29T05:15:24.205Z,103.07
2024-02-29T05:17:54.368Z,131.15
2024-02-29T05:20:24.411Z,133.32
2024-02-29T05:22:56.948Z,55.65
2024-02-29T05:25:27.548Z,71.22
2024-02-29T05:27:57.646Z,85.68
2024-02-29T05:30:27.717Z,108.63
2024-02-29T05:32:57.778Z,111.47
2024-02-29T05:35:27.835Z,102.50
2024-02-29T05:38:00.489Z,147.82
2024-02-29T05:40:30.815Z,172.30
2024-02-29T05:43:01.107Z,81.97
2024-02-29T05:45:31.182Z,124.22
2024-02-29T05:48:01.128Z,122.97
2024-02-29T05:50:34.004Z,113.15
2024-02-29T05:53:07.292Z,144.50
2024-02-29T05:55:37.306Z,113.78
2024-02-29T05:58:07.914Z,185.85
2024-02-29T06:00:38.017Z,133.23
2024-02-29T06:03:08.789Z,177.65
2024-02-29T06:05:39.808Z,112.00
2024-02-29T06:08:16.281Z,149.82
2024-02-29T06:10:48.391Z,122.35
2024-02-29T06:13:18.819Z,110.57
2024-02-29T06:15:49.114Z,150.32
2024-02-29T06:18:19.999Z,220.82
2024-02-29T06:20:50.067Z,92.18
2024-02-29T06:23:22.553Z,87.93
2024-02-29T06:25:52.794Z,125.22
2024-02-29T06:28:24.481Z,107.25
2024-02-29T06:30:55.013Z,97.95
2024-02-29T06:33:25.727Z,99.72
2024-02-29T06:35:55.693Z,104.22
2024-02-29T06:38:28.274Z,70.28
2024-02-29T06:40:58.276Z,83.57
2024-02-29T06:43:30.783Z,91.15
2024-02-29T06:46:05.781Z,90.82
2024-02-29T06:48:35.930Z,79.90
2024-02-29T06:51:06.379Z,113.18
2024-02-29T06:53:39.706Z,86.65
2024-02-29T06:56:09.592Z,136.45
2024-02-29T06:58:39.463Z,82.55
2024-02-29T07:01:09.553Z,91.38
2024-02-29T07:03:39.620Z,72.50
2024-02-29T07:06:10.534Z,64.88
2024-02-29T07:08:43.209Z,59.33
2024-02-29T07:11:15.404Z,63.88
2024-02-29T07:13:45.976Z,88.40
2024-02-29T07:16:16.153Z,62.80
2024-02-29T07:18:46.263Z,60.47
2024-02-29T07:21:16.534Z,61.70
2024-02-29T07:23:49.018Z,61.25
2024-02-29T07:26:19.222Z,56.97
2024-02-29T07:28:51.356Z,52.47
2024-02-29T07:31:21.660Z,64.05
2024-02-29T07:33:51.890Z,53.08
2024-02-29T07:36:22.736Z,53.63
2024-02-29T07:38:55.343Z,56.83
2024-02-29T07:41:25.371Z,56.95
2024-02-29T07:43:55.415Z,61.25
2024-02-29T07:46:25.456Z,41.72
2024-02-29T07:48:55.516Z,44.88
2024-02-29T07:51:25.752Z,49.13
2024-02-29T07:53:58.440Z,32.13
2024-02-29T07:56:30.304Z,23.98
2024-02-29T07:59:00.425Z,49.00
2024-02-29T08:01:30.547Z,52.42
2024-02-29T08:04:03.899Z,46.40
2024-02-29T08:06:35.974Z,46.78
2024-02-29T08:09:10.918Z,60.28
2024-02-29T08:11:41.182Z,44.83
2024-02-29T08:14:11.165Z,47.88
2024-02-29T08:16:41.074Z,46.70
2024-02-29T08:19:11.157Z,48.42
2024-02-29T08:21:41.478Z,45.60
2024-02-29T08:24:15.049Z,54.00
2024-02-29T08:26:45.619Z,52.58
2024-02-29T08:29:17.918Z,50.33
2024-02-29T08:31:48.403Z,51.83
2024-02-29T08:34:18.550Z,45.35
2024-02-29T08:36:51.318Z,54.67
2024-02-29T08:39:23.992Z,49.05
2024-02-29T08:41:54.192Z,53.75
2024-02-29T08:44:24.204Z,40.50
2024-02-29T08:46:54.871Z,45.10
2024-02-29T08:49:25.158Z,52.05
2024-02-29T08:51:55.493Z,50.60
2024-02-29T08:54:28.215Z,44.50
2024-02-29T08:56:58.361Z,41.03
2024-02-29T08:59:28.331Z,47.20
2024-02-29T09:01:58.687Z,54.17
2024-02-29T09:04:28.749Z,43.78
2024-02-29T09:06:58.773Z,53.30
2024-02-29T09:09:32.093Z,56.88
2024-02-29T09:12:02.100Z,52.00
2024-02-29T09:14:32.144Z,53.97
2024-02-29T09:17:02.091Z,50.55
2024-02-29T09:19:32.651Z,44.65
2024-02-29T09:22:03.142Z,48.60
2024-02-29T09:24:35.941Z,58.45
2024-02-29T09:27:06.568Z,50.35
2024-02-29T09:29:36.652Z,61.90
2024-02-29T09:32:07.121Z,53.15
2024-02-29T09:34:41.854Z,48.78
2024-02-29T09:37:14.755Z,47.88
2024-02-29T09:39:47.459Z,47.45
2024-02-29T09:42:17.646Z,52.08
2024-02-29T09:44:47.695Z,50.15
2024-02-29T09:47:20.503Z,53.65
2024-02-29T09:49:56.671Z,55.03
2024-02-29T09:52:30.272Z,47.28
2024-02-29T09:55:06.219Z,49.60
2024-02-29T10:00:11.819Z,47.85
2024-02-29T10:02:43.812Z,43.05
2024-02-29T10:05:14.120Z,43.55
2024-02-29T10:07:49.237Z,51.17
2024-02-29T10:10:22.582Z,42.97
2024-02-29T10:12:57.731Z,47.70
2024-02-29T10:15:31.823Z,52.57
2024-02-29T10:18:02.401Z,49.53
2024-02-29T10:20:33.604Z,47.33
2024-02-29T10:23:03.738Z,38.08
2024-02-29T10:25:38.178Z,43.72
2024-02-29T10:28:08.684Z,48.20
2024-02-29T10:30:39.036Z,45.45
2024-02-29T10:33:14.532Z,47.80
2024-02-29T10:35:44.852Z,48.00
2024-02-29T10:38:16.302Z,39.47
2024-02-29T10:40:53.164Z,46.75
2024-02-29T10:43:24.327Z,47.75
2024-02-29T10:45:54.756Z,52.47
2024-02-29T10:48:31.839Z,45.35
2024-02-29T10:51:04.874Z,43.17
2024-02-29T10:53:44.390Z,33.75
2024-02-29T10:56:24.817Z,39.78
2024-02-29T10:59:04.382Z,40.72
2024-02-29T11:01:35.762Z,24.30
2024-02-29T11:04:07.266Z,44.67
2024-02-29T11:06:44.133Z,41.35
2024-02-29T11:09:15.758Z,43.53
2024-02-29T11:11:48.743Z,44.40
2024-02-29T11:14:21.577Z,43.05
2024-02-29T11:16:51.656Z,49.75
2024-02-29T11:19:22.620Z,42.03
2024-02-29T11:21:52.927Z,44.45
2024-02-29T11:24:24.344Z,56.50
2024-02-29T11:27:00.701Z,51.90
2024-02-29T11:29:31.031Z,48.88
2024-02-29T11:32:01.870Z,44.55
2024-02-29T11:34:32.045Z,45.40
2024-02-29T11:37:02.509Z,47.70
2024-02-29T11:39:32.541Z,48.83
2024-02-29T11:42:12.367Z,39.35
2024-02-29T11:44:49.703Z,43.65
2024-02-29T11:47:19.649Z,55.20
2024-02-29T11:49:49.650Z,50.83
2024-02-29T11:52:19.809Z,45.05
2024-02-29T11:54:50.275Z,42.78
2024-02-29T11:57:23.289Z,51.15
2024-02-29T11:59:56.434Z,42.53
2024-02-29T12:02:26.772Z,42.53
2024-02-29T12:04:57.338Z,42.88
2024-02-29T12:07:28.626Z,39.65
2024-02-29T12:12:48.002Z,39.35
2024-02-29T12:15:18.190Z,43.10
2024-02-29T12:17:51.472Z,38.35
2024-02-29T12:20:21.757Z,33.65
2024-02-29T12:23:01.196Z,43.08
2024-02-29T12:25:31.782Z,39.97
2024-02-29T12:28:04.532Z,42.78
2024-02-29T12:30:36.144Z,42.40
2024-02-29T12:33:06.678Z,48.65
2024-02-29T12:35:37.529Z,44.97
2024-02-29T12:38:09.629Z,41.38
2024-02-29T12:40:39.764Z,50.20
2024-02-29T12:43:18.734Z,44.35
2024-02-29T12:45:49.202Z,41.00
2024-02-29T12:48:19.295Z,44.28
2024-02-29T12:50:49.338Z,47.65
2024-02-29T12:53:19.230Z,46.60
2024-02-29T12:55:49.544Z,45.60
2024-02-29T12:58:22.173Z,32.30
2024-02-29T13:00:52.538Z,37.92
2024-02-29T13:03:23.027Z,27.25
2024-02-29T13:05:53.004Z,31.50
2024-02-29T13:08:25.044Z,39.67
2024-02-29T13:10:57.229Z,42.58
2024-02-29T13:13:29.831Z,43.75
2024-02-29T13:15:59.953Z,46.58
2024-02-29T13:18:29.835Z,39.65
2024-02-29T13:21:04.645Z,23.88
2024-02-29T13:23:35.633Z,32.42
2024-02-29T13:26:23.808Z,28.48
2024-02-29T13:28:56.664Z,34.03
2024-02-29T13:31:26.929Z,26.52
2024-02-29T13:33:57.167Z,39.30
2024-02-29T13:36:27.347Z,39.70
2024-02-29T13:38:57.406Z,52.65
2024-02-29T13:41:27.637Z,27.95
2024-02-29T13:44:00.337Z,26.90
2024-02-29T13:46:32.843Z,29.08
2024-02-29T13:49:20.821Z,30.48
2024-02-29T13:51:53.143Z,52.00
2024-02-29T13:54:23.314Z,42.80
2024-02-29T13:56:54.588Z,40.88
2024-02-29T13:59:29.217Z,41.65
2024-02-29T14:01:59.780Z,40.38
2024-02-29T14:04:30.078Z,37.45
2024-02-29T14:07:00.259Z,35.90
2024-02-29T14:09:32.061Z,38.85
2024-02-29T14:12:02.157Z,42.85
2024-02-29T14:14:34.729Z,53.60
2024-02-29T14:17:05.004Z,40.47
2024-02-29T14:19:36.800Z,49.75
2024-02-29T14:22:07.444Z,46.00
2024-02-29T14:24:37.440Z,43.95
2024-02-29T14:27:07.574Z,41.70
2024-02-29T14:29:40.337Z,53.92
2024-02-29T14:32:13.049Z,33.03
2024-02-29T14:34:43.168Z,59.50
2024-02-29T14:37:13.258Z,43.63
2024-02-29T14:39:44.679Z,38.92
2024-02-29T14:42:15.517Z,32.42
2024-02-29T14:44:48.846Z,57.10
2024-02-29T14:47:19.093Z,55.53
2024-02-29T14:49:49.266Z,43.10
2024-02-29T14:52:19.364Z,58.10
2024-02-29T14:54:49.721Z,61.95
2024-02-29T14:57:19.745Z,52.38
2024-02-29T14:59:52.422Z,56.38
2024-02-29T15:02:25.037Z,55.45
2024-02-29T15:04:55.432Z,52.63
2024-02-29T15:07:25.673Z,61.08
2024-02-29T15:09:55.719Z,62.67
2024-02-29T15:12:25.963Z,50.92
2024-02-29T15:14:58.748Z,55.60
2024-02-29T15:17:32.840Z,49.28
2024-02-29T15:20:04.655Z,50.97
2024-02-29T15:22:34.748Z,56.08
2024-02-29T15:25:05.686Z,51.72
2024-02-29T15:27:39.758Z,61.30
2024-02-29T15:30:13.760Z,48.65
2024-02-29T15:32:43.869Z,65.15
2024-02-29T15:35:13.950Z,52.83
2024-02-29T15:37:44.319Z,50.15
2024-02-29T15:40:15.534Z,51.35
2024-02-29T15:42:45.631Z,53.67
2024-02-29T15:45:18.517Z,50.38
2024-02-29T15:47:48.830Z,55.75
2024-02-29T15:50:18.969Z,54.55
2024-02-29T15:52:48.994Z,46.58
2024-02-29T15:55:19.239Z,52.42
2024-02-29T15:57:49.348Z,48.85
2024-02-29T16:00:24.242Z,55.78
2024-02-29T16:02:54.415Z,51.90
2024-02-29T16:05:24.462Z,57.03
2024-02-29T16:07:55.884Z,55.15
2024-02-29T16:10:26.166Z,46.25
2024-02-29T16:12:56.529Z,52.33
2024-02-29T16:15:29.520Z,56.55
2024-02-29T16:17:59.562Z,59.00
2024-02-29T16:20:29.969Z,55.50
2024-02-29T16:22:59.832Z,50.42
2024-02-29T16:25:29.948Z,46.45
2024-02-29T16:28:00.051Z,46.92
2024-02-29T16:30:34.261Z,52.33
2024-02-29T16:33:04.451Z,45.17
2024-02-29T16:35:35.157Z,56.08
2024-02-29T16:38:05.483Z,39.38
2024-02-29T16:40:37.647Z,46.65
2024-02-29T16:43:07.970Z,57.65
2024-02-29T16:45:40.876Z,47.47
2024-02-29T16:48:11.531Z,57.72
2024-02-29T16:50:43.159Z,46.42
2024-02-29T16:53:13.291Z,51.35
2024-02-29T16:55:43.307Z,57.67
2024-02-29T16:58:13.653Z,62.65
2024-02-29T17:00:48.468Z,57.50
2024-02-29T17:03:18.612Z,56.10
2024-02-29T17:05:49.907Z,53.10
2024-02-29T17:08:20.026Z,48.25
2024-02-29T17:10:50.403Z,58.75
2024-02-29T17:13:21.280Z,59.45
2024-02-29T17:15:54.167Z,54.67
2024-02-29T17:18:25.687Z,49.80
2024-02-29T17:20:56.033Z,60.03
2024-02-29T17:23:26.099Z,59.70
2024-02-29T17:25:56.094Z,56.50
2024-02-29T17:28:26.140Z,50.72
2024-02-29T17:30:59.368Z,50.67
2024-02-29T17:33:29.686Z,64.90
2024-02-29T17:36:00.200Z,53.10
2024-02-29T17:38:30.409Z,51.00
2024-02-29T17:41:00.398Z,42.25
2024-02-29T17:43:30.449Z,59.25
2024-02-29T17:46:03.670Z,55.00
2024-02-29T17:48:34.007Z,48.63
2024-02-29T17:51:07.172Z,57.00
2024-02-29T17:53:37.382Z,50.95
2024-02-29T17:56:08.985Z,61.00
2024-02-29T17:58:39.410Z,65.40
2024-02-29T18:01:12.169Z,75.80
2024-02-29T18:03:44.091Z,62.15
2024-02-29T18:06:14.733Z,68.32
2024-02-29T18:08:45.019Z,78.05
2024-02-29T18:11:15.233Z,66.50
2024-02-29T18:13:45.354Z,71.65
2024-02-29T18:16:18.421Z,65.53
2024-02-29T18:18:48.522Z,72.43
2024-02-29T18:21:18.643Z,84.95
2024-02-29T18:23:48.645Z,88.68
2024-02-29T18:26:20.614Z,81.53
2024-02-29T18:28:52.005Z,84.97
2024-02-29T18:31:34.373Z,77.78
2024-02-29T18:34:04.628Z,86.57
2024-02-29T18:36:35.890Z,86.82
2024-02-29T18:39:13.169Z,74.93
2024-02-29T18:41:44.917Z,88.72
2024-02-29T18:44:15.807Z,81.78
2024-02-29T18:46:49.335Z,89.03
2024-02-29T18:49:21.079Z,89.15
2024-02-29T18:51:52.368Z,88.28
2024-02-29T18:54:22.705Z,93.28
2024-02-29T18:56:52.895Z,91.93
2024-02-29T18:59:23.308Z,107.55
2024-02-29T19:01:58.894Z,96.57
2024-02-29T19:04:29.662Z,103.07
2024-02-29T19:06:59.866Z,97.95
2024-02-29T19:09:29.930Z,103.90
2024-02-29T19:12:01.434Z,101.75
2024-02-29T19:14:31.978Z,99.93
2024-02-29T19:17:05.004Z,98.10
2024-02-29T19:19:41.478Z,94.32
2024-02-29T19:22:11.608Z,107.18
2024-02-29T19:24:42.004Z,98.80
2024-02-29T19:27:12.088Z,95.05
2024-02-29T19:29:42.191Z,100.70
2024-02-29T19:32:15.181Z,103.65
2024-02-29T19:34:45.371Z,113.13
2024-02-29T19:37:15.729Z,114.72
2024-02-29T19:39:48.366Z,118.50
2024-02-29T19:42:18.657Z,101.88
2024-02-29T19:44:48.955Z,116.75
2024-02-29T19:47:24.592Z,113.53
2024-02-29T19:49:54.915Z,108.20
2024-02-29T19:52:25.129Z,101.85
2024-02-29T19:54:56.534Z,108.25
2024-02-29T19:57:28.920Z,113.03
2024-02-29T19:59:59.309Z,109.97
2024-02-29T20:02:34.327Z,115.30
2024-02-29T20:05:20.362Z,131.10
2024-02-29T20:07:51.335Z,122.88
2024-02-29T20:10:26.531Z,118.28
2024-02-29T20:13:07.644Z,120.03
2024-02-29T20:15:40.235Z,125.25
2024-02-29T20:18:13.048Z,124.72
2024-02-29T20:20:44.235Z,129.52
2024-02-29T20:23:14.859Z,122.97
2024-02-29T20:25:45.988Z,113.03
2024-02-29T20:28:17.442Z,121.57
2024-02-29T20:30:49.071Z,91.50
2024-02-29T20:33:21.751Z,83.40
2024-02-29T20:35:51.808Z,77.07
2024-02-29T20:38:22.172Z,70.25
2024-02-29T20:40:52.414Z,96.43
2024-02-29T20:43:22.809Z,95.78
2024-02-29T20:45:53.074Z,115.53
2024-02-29T20:48:26.192Z,102.93
2024-02-29T20:50:58.429Z,122.85
2024-02-29T20:53:28.822Z,128.45
2024-02-29T20:55:58.738Z,128.25
2024-02-29T20:58:28.961Z,124.85
2024-02-29T21:01:00.356Z,112.60
2024-02-29T21:03:33.616Z,166.95
2024-02-29T21:06:03.830Z,149.57
2024-02-29T21:08:34.062Z,133.45
2024-02-29T21:11:04.866Z,190.73
2024-02-29T21:13:37.407Z,162.80
2024-02-29T21:16:08.283Z,180.68
2024-02-29T21:18:41.606Z,126.40
2024-02-29T21:21:16.371Z,95.28
2024-02-29T21:23:48.127Z,110.70
2024-02-29T21:26:18.139Z,132.60
2024-02-29T21:28:50.529Z,110.22
2024-02-29T21:31:20.747Z,124.35
2024-02-29T21:33:53.443Z,121.63
2024-02-29T21:36:24.965Z,117.50
2024-02-29T21:38:58.557Z,131.15
2024-02-29T21:41:28.500Z,147.73
2024-02-29T21:43:58.743Z,121.60
2024-02-29T21:49:37.944Z,119.78
2024-02-29T21:52:08.949Z,138.65
2024-02-29T21:54:43.445Z,126.68
2024-02-29T21:57:16.160Z,101.45
2024-02-29T21:59:49.842Z,152.85
2024-02-29T22:02:19.956Z,159.02
2024-02-29T22:04:55.955Z,167.77
2024-02-29T22:07:26.194Z,164.73
2024-02-29T22:09:57.680Z,166.07
2024-02-29T22:12:27.854Z,146.27
2024-02-29T22:14:57.823Z,109.00
2024-02-29T22:17:27.995Z,154.63
2024-02-29T22:20:00.646Z,126.72
2024-02-29T22:22:30.922Z,135.95
2024-02-29T22:25:01.073Z,101.32
2024-02-29T22:27:31.238Z,163.15
2024-02-29T22:30:01.356Z,138.55
2024-02-29T22:32:31.479Z,142.80
2024-02-29T22:35:07.977Z,163.90
2024-02-29T22:37:38.271Z,145.55
2024-02-29T22:40:10.529Z,108.13
2024-02-29T22:42:40.685Z,147.52
2024-02-29T22:45:13.462Z,153.20
2024-02-29T22:47:44.087Z,102.93
2024-02-29T22:50:16.868Z,130.30
2024-02-29T22:52:47.115Z,150.60
2024-02-29T22:55:17.473Z,143.25
2024-02-29T22:57:49.974Z,129.40
2024-02-29T23:00:27.275Z,146.82
2024-02-29T23:02:57.368Z,159.55
2024-02-29T23:05:31.352Z,113.75
2024-02-29T23:08:01.571Z,142.07
2024-02-29T23:10:31.711Z,125.97
2024-02-29T23:13:01.966Z,146.20
2024-02-29T23:15:32.309Z,137.15
2024-02-29T23:18:02.797Z,123.68
2024-02-29T23:20:35.472Z,113.85
2024-02-29T23:23:06.196Z,148.73
2024-02-29T23:25:36.518Z,148.57
2024-02-29T23:28:07.155Z,136.57
2024-02-29T23:30:37.216Z,126.40
2024-02-29T23:33:08.196Z,140.35
2024-02-29T23:35:40.955Z,99.35
2024-02-29T23:38:11.453Z,133.35
2024-02-29T23:40:41.608Z,126.03
2024-02-29T23:43:11.781Z,131.93
2024-02-29T23:45:42.180Z,134.45
2024-02-29T23:48:13.052Z,136.75
2024-02-29T23:50:45.701Z,123.10
2024-02-29T23:53:16.136Z,118.57
2024-02-29T23:55:46.173Z,132.68
2024-02-29T23:58:16.381Z,112.30
